createdAt,value
2017-06-19T00:00:47.007Z,63.50
2017-06-19T00:03:15.420Z,64.10
2017-06-19T00:05:43.693Z,64.30
2017-06-19T00:08:11.967Z,64.30
2017-06-19T00:10:40.279Z,64.90
2017-06-19T00:13:08.552Z,65.00
2017-06-19T00:15:37.588Z,65.70
2017-06-19T00:18:05.892Z,65.60
2017-06-19T00:20:34.923Z,65.60
2017-06-19T00:23:08.800Z,65.40
2017-06-19T00:25:37.060Z,66.00
2017-06-19T00:28:05.336Z,65.70
2017-06-19T00:30:33.644Z,64.90
2017-06-19T00:33:02.676Z,64.30
2017-06-19T00:35:30.945Z,64.30
2017-06-19T00:37:59.268Z,64.80
2017-06-19T00:40:27.548Z,65.20
2017-06-19T00:42:55.824Z,65.30
2017-06-19T00:45:24.136Z,65.70
2017-06-19T00:47:53.360Z,65.30
2017-06-19T00:50:21.638Z,65.10
2017-06-19T00:52:49.932Z,65.60
2017-06-19T00:55:18.204Z,65.70
2017-06-19T00:57:46.470Z,66.00
2017-06-19T01:00:14.774Z,66.40
2017-06-19T01:02:43.040Z,66.70
2017-06-19T01:05:11.306Z,67.50
2017-06-19T01:07:39.603Z,67.50
2017-06-19T01:10:08.640Z,67.50
2017-06-19T01:12:36.899Z,67.40
2017-06-19T01:15:05.220Z,66.30
2017-06-19T01:17:33.484Z,67.20
2017-06-19T01:20:01.784Z,67.10
2017-06-19T01:22:30.091Z,67.50
2017-06-19T01:24:58.363Z,67.50
2017-06-19T01:27:26.640Z,67.30
2017-06-19T01:29:54.955Z,67.30
2017-06-19T01:32:23.227Z,67.30
2017-06-19T01:34:51.507Z,67.70
2017-06-19T01:37:19.820Z,67.30
2017-06-19T01:39:48.088Z,67.50
2017-06-19T01:42:16.359Z,67.40
2017-06-19T01:44:44.839Z,67.60
2017-06-19T01:47:17.856Z,68.90
2017-06-19T01:49:46.170Z,68.90
2017-06-19T01:52:15.196Z,69.90
2017-06-19T01:54:43.468Z,69.20
2017-06-19T01:57:11.772Z,70.00
2017-06-19T01:59:40.808Z,70.90
2017-06-19T02:02:09.075Z,70.10
2017-06-19T02:04:37.400Z,70.50
2017-06-19T02:07:05.676Z,69.50
2017-06-19T02:09:33.951Z,68.50
2017-06-19T02:12:02.495Z,69.30
2017-06-19T02:14:30.756Z,69.70
2017-06-19T02:16:59.027Z,69.60
2017-06-19T02:19:27.332Z,69.60
2017-06-19T02:21:55.612Z,70.00
2017-06-19T02:24:24.653Z,70.70
2017-06-19T02:26:52.955Z,70.50
2017-06-19T02:29:21.991Z,71.30
2017-06-19T02:31:50.260Z,71.10
2017-06-19T02:34:18.568Z,71.50
2017-06-19T02:36:46.836Z,72.00
2017-06-19T02:39:15.108Z,71.60
2017-06-19T02:41:43.414Z,71.20
2017-06-19T02:44:11.691Z,71.50
2017-06-19T02:46:40.724Z,69.80
2017-06-19T02:49:09.044Z,69.70
2017-06-19T02:51:38.119Z,70.60
2017-06-19T02:54:07.160Z,70.30
2017-06-19T02:56:35.480Z,70.30
2017-06-19T02:59:03.739Z,70.70
2017-06-19T03:01:32.019Z,71.10
2017-06-19T03:04:00.355Z,71.40
2017-06-19T03:06:28.629Z,71.50
2017-06-19T03:08:56.932Z,71.30
2017-06-19T03:11:25.238Z,72.20
2017-06-19T03:13:54.278Z,72.30
2017-06-19T03:16:22.548Z,72.10
2017-06-19T03:18:50.867Z,72.50
2017-06-19T03:21:19.140Z,72.60
2017-06-19T03:23:47.420Z,72.70
2017-06-19T03:26:15.724Z,72.90
2017-06-19T03:28:44.763Z,72.80
2017-06-19T03:31:13.038Z,72.70
2017-06-19T03:33:41.340Z,72.60
2017-06-19T03:36:09.604Z,71.80
2017-06-19T03:38:37.880Z,72.10
2017-06-19T03:41:06.396Z,72.40
2017-06-19T03:43:34.668Z,72.40
2017-06-19T03:46:03.719Z,71.70
2017-06-19T03:48:32.045Z,71.60
2017-06-19T03:51:00.316Z,72.30
2017-06-19T03:53:28.601Z,72.80
2017-06-19T03:55:56.904Z,73.10
2017-06-19T03:58:25.188Z,74.00
2017-06-19T04:00:53.468Z,72.80
2017-06-19T04:03:21.880Z,72.60
2017-06-19T04:05:50.911Z,72.50
2017-06-19T04:08:19.192Z,72.50
2017-06-19T04:10:47.492Z,72.20
2017-06-19T04:13:16.527Z,71.70
2017-06-19T04:15:44.797Z,71.60
2017-06-19T04:18:13.114Z,71.50
2017-06-19T04:20:41.392Z,71.60
2017-06-19T04:23:09.668Z,71.00
2017-06-19T04:25:37.996Z,70.80
2017-06-19T04:28:06.259Z,70.40
2017-06-19T04:30:34.540Z,70.20
2017-06-19T04:33:02.976Z,70.00
2017-06-19T04:35:31.248Z,69.40
2017-06-19T04:37:59.520Z,69.10
2017-06-19T04:40:27.833Z,68.50
2017-06-19T04:42:56.105Z,67.70
2017-06-19T04:45:25.141Z,68.00
2017-06-19T04:47:53.537Z,67.90
2017-06-19T04:50:21.795Z,66.60
2017-06-19T04:52:50.066Z,65.90
2017-06-19T04:55:19.136Z,67.90
2017-06-19T04:57:47.411Z,67.00
2017-06-19T05:00:16.443Z,65.50
2017-06-19T05:02:44.780Z,65.50
2017-06-19T05:05:13.056Z,61.80
2017-06-19T05:07:41.324Z,62.90
2017-06-19T05:10:09.936Z,61.70
2017-06-19T05:12:38.976Z,62.50
2017-06-19T05:15:07.236Z,62.40
2017-06-19T05:17:35.560Z,61.20
2017-06-19T05:20:03.860Z,59.60
2017-06-19T05:22:32.141Z,59.70
2017-06-19T05:25:04.915Z,59.00
2017-06-19T05:27:33.196Z,59.80
2017-06-19T05:30:02.228Z,58.80
2017-06-19T05:32:30.533Z,58.80
2017-06-19T05:34:59.575Z,57.70
2017-06-19T05:37:27.848Z,57.70
2017-06-19T05:39:56.240Z,57.60
2017-06-19T05:42:25.282Z,57.00
2017-06-19T05:44:53.547Z,56.90
2017-06-19T05:47:22.045Z,56.50
2017-06-19T05:49:51.102Z,57.20
2017-06-19T05:52:19.372Z,56.50
2017-06-19T05:54:48.461Z,57.10
2017-06-19T05:57:16.736Z,57.00
2017-06-19T05:59:45.015Z,55.70
2017-06-19T06:02:13.320Z,55.10
2017-06-19T06:04:42.496Z,54.50
2017-06-19T06:07:10.780Z,53.60
2017-06-19T06:09:39.081Z,54.20
2017-06-19T06:12:07.360Z,54.00
2017-06-19T06:14:35.628Z,53.10
2017-06-19T06:17:04.704Z,53.20
2017-06-19T06:19:33.012Z,53.30
2017-06-19T06:22:01.317Z,53.30
2017-06-19T06:24:30.049Z,52.90
2017-06-19T06:26:59.105Z,53.70
2017-06-19T06:29:27.366Z,53.60
2017-06-19T06:31:55.704Z,53.10
2017-06-19T06:34:23.982Z,53.20
2017-06-19T06:36:52.257Z,52.80
2017-06-19T06:39:20.565Z,52.20
2017-06-19T06:41:48.848Z,52.00
2017-06-19T06:44:17.119Z,51.20
2017-06-19T06:46:45.427Z,51.00
2017-06-19T06:49:14.624Z,50.70
2017-06-19T06:51:42.892Z,50.70
2017-06-19T06:54:11.331Z,50.20
2017-06-19T06:56:40.364Z,50.10
2017-06-19T06:59:08.627Z,50.00
2017-06-19T07:01:36.936Z,50.10
2017-06-19T07:04:05.976Z,48.70
2017-06-19T07:06:34.248Z,48.50
2017-06-19T07:09:02.560Z,48.00
2017-06-19T07:11:30.845Z,48.20
2017-06-19T07:13:59.113Z,47.80
2017-06-19T07:16:27.425Z,47.40
2017-06-19T07:21:24.104Z,47.50
2017-06-19T07:23:52.407Z,47.00
2017-06-19T07:26:21.444Z,47.20
2017-06-19T07:28:49.716Z,47.20
2017-06-19T07:31:18.029Z,45.90
2017-06-19T07:33:46.320Z,44.70
2017-06-19T07:36:14.588Z,43.60
2017-06-19T07:38:42.897Z,42.20
2017-06-19T07:41:11.932Z,42.50
2017-06-19T07:43:40.201Z,42.40
2017-06-19T07:46:08.584Z,41.90
2017-06-19T07:48:36.869Z,38.80
2017-06-19T07:51:05.140Z,38.90
2017-06-19T07:53:33.452Z,37.70
2017-06-19T07:56:01.721Z,36.60
2017-06-19T07:58:30.784Z,35.40
2017-06-19T08:00:59.097Z,35.30
2017-06-19T08:03:27.374Z,34.30
2017-06-19T08:05:55.653Z,34.80
2017-06-19T08:08:23.993Z,35.70
2017-06-19T08:10:52.261Z,34.70
2017-06-19T08:13:20.536Z,34.60
2017-06-19T08:15:49.053Z,35.40
2017-06-19T08:18:18.093Z,33.90
2017-06-19T08:20:46.368Z,33.90
2017-06-19T08:23:20.303Z,35.10
2017-06-19T08:25:48.581Z,35.10
2017-06-19T08:28:16.860Z,35.60
2017-06-19T08:30:45.378Z,33.10
2017-06-19T08:33:14.417Z,33.40
2017-06-19T08:35:42.688Z,33.40
2017-06-19T08:38:11.004Z,33.80
2017-06-19T08:40:39.275Z,32.20
2017-06-19T08:43:07.557Z,32.40
2017-06-19T08:45:36.060Z,32.80
2017-06-19T08:48:05.104Z,33.40
2017-06-19T08:50:33.380Z,33.40
2017-06-19T08:53:01.692Z,33.80
2017-06-19T08:55:29.976Z,32.20
2017-06-19T08:57:58.244Z,32.60
2017-06-19T09:00:26.751Z,34.90
2017-06-19T09:02:55.800Z,34.60
2017-06-19T09:05:24.072Z,33.80
2017-06-19T09:07:52.403Z,32.80
2017-06-19T09:10:21.313Z,31.60
2017-06-19T09:12:50.476Z,32.90
2017-06-19T09:15:18.803Z,32.90
2017-06-19T09:17:47.073Z,33.80
2017-06-19T09:20:15.344Z,32.90
2017-06-19T09:22:43.687Z,31.40
2017-06-19T09:25:11.968Z,31.30
2017-06-19T09:27:40.240Z,31.90
2017-06-19T09:30:08.555Z,31.40
2017-06-19T09:32:37.608Z,31.50
2017-06-19T09:35:05.885Z,31.50
2017-06-19T09:37:35.172Z,33.10
2017-06-19T09:40:04.221Z,31.80
2017-06-19T09:42:32.536Z,31.70
2017-06-19T09:45:00.938Z,33.80
2017-06-19T09:47:29.196Z,31.60
2017-06-19T09:49:57.520Z,31.60
2017-06-19T09:52:25.857Z,31.50
2017-06-19T09:54:54.207Z,31.60
2017-06-19T09:57:22.478Z,30.50
2017-06-19T09:59:50.792Z,31.30
2017-06-19T10:02:19.073Z,30.90
2017-06-19T10:04:47.352Z,31.80
2017-06-19T10:07:15.664Z,32.00
2017-06-19T10:09:43.948Z,30.30
2017-06-19T10:12:12.220Z,32.20
2017-06-19T10:14:40.655Z,30.10
2017-06-19T10:17:08.934Z,29.70
2017-06-19T10:19:37.242Z,29.30
2017-06-19T10:22:05.535Z,29.90
2017-06-19T10:24:33.812Z,32.30
2017-06-19T10:27:02.096Z,30.30
2017-06-19T10:29:30.429Z,30.80
2017-06-19T10:31:58.712Z,29.30
2017-06-19T10:34:27.067Z,28.20
2017-06-19T10:36:55.594Z,27.70
2017-06-19T10:39:24.721Z,29.00
2017-06-19T10:41:54.012Z,28.60
2017-06-19T10:44:22.357Z,28.40
2017-06-19T10:46:50.628Z,28.50
2017-06-19T10:49:18.904Z,29.90
2017-06-19T10:51:48.011Z,27.20
2017-06-19T10:54:17.064Z,27.90
2017-06-19T10:56:45.344Z,27.80
2017-06-19T10:59:14.648Z,28.00
2017-06-19T11:01:43.700Z,29.10
2017-06-19T11:04:11.987Z,29.00
2017-06-19T11:06:41.061Z,30.00
2017-06-19T11:09:10.099Z,28.10
2017-06-19T11:11:38.387Z,27.90
2017-06-19T11:14:06.706Z,27.60
2017-06-19T11:16:34.981Z,27.00
2017-06-19T11:19:03.268Z,28.40
2017-06-19T11:21:31.611Z,29.90
2017-06-19T11:23:59.888Z,26.50
2017-06-19T11:26:28.933Z,25.80
2017-06-19T11:28:57.244Z,28.70
2017-06-19T11:31:26.300Z,25.50
2017-06-19T11:33:54.575Z,25.40
2017-06-19T11:36:22.881Z,25.70
2017-06-19T11:38:51.164Z,26.00
2017-06-19T11:41:19.472Z,25.40
2017-06-19T11:43:47.879Z,25.50
2017-06-19T11:46:16.157Z,24.10
2017-06-19T11:48:44.435Z,27.60
2017-06-19T11:51:12.760Z,24.00
2017-06-19T11:53:41.044Z,26.60
2017-06-19T11:56:09.317Z,24.60
2017-06-19T11:58:37.728Z,26.20
2017-06-19T12:01:06.016Z,26.90
2017-06-19T12:03:34.292Z,26.50
2017-06-19T12:06:02.618Z,23.30
2017-06-19T12:08:30.888Z,22.80
2017-06-19T12:10:59.165Z,24.30
2017-06-19T12:13:27.495Z,23.00
2017-06-19T12:15:56.539Z,23.70
2017-06-19T12:18:25.051Z,23.60
2017-06-19T12:20:53.497Z,22.50
2017-06-19T12:23:22.538Z,25.70
2017-06-19T12:25:50.818Z,25.80
2017-06-19T12:28:19.256Z,24.00
2017-06-19T12:30:47.536Z,22.60
2017-06-19T12:33:15.804Z,21.50
2017-06-19T12:35:44.215Z,24.00
2017-06-19T12:38:12.496Z,26.60
2017-06-19T12:40:40.784Z,22.80
2017-06-19T12:43:09.117Z,23.70
2017-06-19T12:45:37.393Z,21.80
2017-06-19T12:48:05.679Z,21.80
2017-06-19T12:50:34.367Z,19.50
2017-06-19T12:53:03.408Z,20.40
2017-06-19T12:55:31.681Z,20.30
2017-06-19T12:58:00.000Z,20.80
2017-06-19T13:00:28.273Z,19.10
2017-06-19T13:02:56.553Z,22.60
2017-06-19T13:05:24.920Z,22.00
2017-06-19T13:07:53.215Z,22.80
2017-06-19T13:10:21.502Z,19.40
2017-06-19T13:12:49.936Z,20.30
2017-06-19T13:15:19.028Z,21.40
2017-06-19T13:17:47.312Z,21.20
2017-06-19T13:20:15.646Z,19.30
2017-06-19T13:22:44.685Z,20.50
2017-06-19T13:25:12.964Z,20.50
2017-06-19T13:27:41.276Z,21.40
2017-06-19T13:30:09.555Z,19.40
2017-06-19T13:32:37.828Z,22.10
2017-06-19T13:35:06.146Z,21.50
2017-06-19T13:37:34.422Z,20.50
2017-06-19T13:40:02.703Z,20.00
2017-06-19T13:42:31.014Z,19.70
2017-06-19T13:45:00.060Z,17.70
2017-06-19T13:47:28.320Z,17.70
2017-06-19T13:49:56.834Z,19.10
2017-06-19T13:52:25.881Z,16.80
2017-06-19T13:54:54.144Z,16.70
2017-06-19T13:57:22.476Z,19.60
2017-06-19T13:59:50.745Z,17.30
2017-06-19T14:02:19.012Z,17.70
2017-06-19T14:04:47.314Z,16.60
2017-06-19T14:07:16.358Z,17.90
2017-06-19T14:09:44.640Z,17.80
2017-06-19T14:12:12.948Z,16.00
2017-06-19T14:14:41.293Z,16.70
2017-06-19T14:17:09.568Z,19.90
2017-06-19T14:19:38.258Z,18.30
2017-06-19T14:22:08.068Z,18.10
2017-06-19T14:24:36.405Z,18.00
2017-06-19T14:27:04.684Z,16.10
2017-06-19T14:29:32.958Z,17.50
2017-06-19T14:32:01.252Z,16.10
2017-06-19T14:34:30.335Z,15.50
2017-06-19T14:36:59.372Z,17.90
2017-06-19T14:39:27.652Z,17.70
2017-06-19T14:41:56.141Z,15.70
2017-06-19T14:44:25.186Z,17.10
2017-06-19T14:46:53.452Z,17.10
2017-06-19T14:49:21.772Z,16.20
2017-06-19T14:51:50.044Z,13.70
2017-06-19T14:54:18.320Z,14.50
2017-06-19T14:56:46.628Z,15.70
2017-06-19T14:59:14.915Z,15.80
2017-06-19T15:01:43.184Z,14.00
2017-06-19T15:04:11.500Z,14.00
2017-06-19T15:06:40.539Z,16.70
2017-06-19T15:09:08.808Z,16.50
2017-06-19T15:11:37.144Z,17.10
2017-06-19T15:14:05.424Z,17.30
2017-06-19T15:16:33.696Z,16.10
2017-06-19T15:19:02.077Z,15.70
2017-06-19T15:21:37.943Z,16.30
2017-06-19T15:24:06.780Z,16.90
2017-06-19T15:26:35.281Z,18.70
2017-06-19T15:29:04.321Z,17.30
2017-06-19T15:31:32.828Z,17.30
2017-06-19T15:34:01.108Z,17.60
2017-06-19T15:36:29.383Z,17.80
2017-06-19T15:38:57.700Z,19.50
2017-06-19T15:41:25.977Z,18.40
2017-06-19T15:43:55.040Z,18.30
2017-06-19T15:46:23.356Z,18.30
2017-06-19T15:48:51.627Z,18.30
2017-06-19T15:51:19.904Z,21.00
2017-06-19T15:53:48.343Z,19.50
2017-06-19T15:56:16.649Z,18.40
2017-06-19T15:58:44.917Z,18.70
2017-06-19T16:01:13.228Z,18.30
2017-06-19T16:03:41.505Z,17.70
2017-06-19T16:06:09.784Z,17.50
2017-06-19T16:08:38.112Z,18.10
2017-06-19T16:11:06.390Z,20.30
2017-06-19T16:13:34.658Z,18.00
2017-06-19T16:16:03.160Z,17.90
2017-06-19T16:18:32.200Z,17.90
2017-06-19T16:21:00.480Z,17.80
2017-06-19T16:23:28.809Z,19.00
2017-06-19T16:25:57.111Z,18.40
2017-06-19T16:28:26.178Z,17.80
2017-06-19T16:30:54.484Z,17.80
2017-06-19T16:33:22.754Z,18.90
2017-06-19T16:35:51.032Z,17.70
2017-06-19T16:38:19.344Z,17.30
2017-06-19T16:40:48.404Z,17.60
2017-06-19T16:43:16.673Z,17.60
2017-06-19T16:45:44.996Z,18.50
2017-06-19T16:48:13.280Z,17.80
2017-06-19T16:50:41.556Z,17.60
2017-06-19T16:53:09.855Z,17.60
2017-06-19T16:55:38.139Z,17.80
2017-06-19T16:58:06.412Z,18.00
2017-06-19T17:00:34.757Z,18.30
2017-06-19T17:03:03.045Z,18.30
2017-06-19T17:05:31.328Z,17.50
2017-06-19T17:08:00.411Z,19.60
2017-06-19T17:10:29.451Z,18.30
2017-06-19T17:12:57.740Z,18.70
2017-06-19T17:15:26.077Z,18.10
2017-06-19T17:17:54.351Z,19.50
2017-06-19T17:20:22.688Z,18.50
2017-06-19T17:22:50.984Z,18.80
2017-06-19T17:25:19.280Z,19.40
2017-06-19T17:27:47.572Z,20.30
2017-06-19T17:30:16.005Z,19.10
2017-06-19T17:32:45.044Z,20.30
2017-06-19T17:35:13.327Z,20.20
2017-06-19T17:37:42.412Z,20.50
2017-06-19T17:40:11.452Z,20.20
2017-06-19T17:42:39.724Z,19.80
2017-06-19T17:45:08.220Z,21.10
2017-06-19T17:47:37.264Z,20.80
2017-06-19T17:50:05.555Z,20.60
2017-06-19T17:52:34.663Z,21.00
2017-06-19T17:55:02.944Z,20.90
2017-06-19T17:57:31.223Z,20.90
2017-06-19T17:59:59.544Z,20.90
2017-06-19T18:02:27.818Z,20.90
2017-06-19T18:04:56.097Z,20.60
2017-06-19T18:07:24.420Z,20.00
2017-06-19T18:09:52.695Z,20.70
2017-06-19T18:12:20.977Z,20.90
2017-06-19T18:14:49.460Z,20.80
2017-06-19T18:17:17.748Z,22.00
2017-06-19T18:19:46.016Z,21.30
2017-06-19T18:22:15.104Z,21.80
2017-06-19T18:24:44.197Z,21.70
2017-06-19T18:27:12.491Z,21.60
2017-06-19T18:29:40.818Z,22.50
2017-06-19T18:32:09.099Z,22.10
2017-06-19T18:34:37.380Z,22.90
2017-06-19T18:37:05.700Z,23.00
2017-06-19T18:39:34.739Z,23.40
2017-06-19T18:42:03.016Z,23.30
2017-06-19T18:44:31.347Z,24.30
2017-06-19T18:46:59.663Z,24.40
2017-06-19T18:49:27.991Z,24.90
2017-06-19T18:51:56.363Z,24.40
2017-06-19T18:54:25.518Z,25.70
2017-06-19T18:56:53.816Z,25.70
2017-06-19T18:59:22.293Z,26.70
2017-06-19T19:01:51.328Z,26.80
2017-06-19T19:04:19.600Z,26.80
2017-06-19T19:06:47.940Z,26.90
2017-06-19T19:09:16.214Z,27.60
2017-06-19T19:11:44.505Z,27.50
2017-06-19T19:14:12.820Z,27.50
2017-06-19T19:16:41.098Z,27.50
2017-06-19T19:19:09.421Z,28.40
2017-06-19T19:21:37.981Z,28.70
2017-06-19T19:24:07.012Z,29.10
2017-06-19T19:26:35.289Z,29.00
2017-06-19T19:29:03.612Z,29.40
2017-06-19T19:31:31.883Z,29.40
2017-06-19T19:34:00.166Z,29.70
2017-06-19T19:36:28.508Z,29.80
2017-06-19T19:38:56.857Z,30.60
2017-06-19T19:41:25.169Z,30.70
2017-06-19T19:43:53.465Z,30.50
2017-06-19T19:46:21.765Z,30.50
2017-06-19T19:48:50.039Z,30.40
2017-06-19T19:51:18.356Z,30.40
2017-06-19T19:53:46.645Z,30.20
2017-06-19T19:56:14.924Z,30.80
2017-06-19T19:58:43.236Z,32.20
2017-06-19T20:01:11.520Z,32.40
2017-06-19T20:03:39.797Z,32.90
2017-06-19T20:06:08.328Z,33.60
2017-06-19T20:08:36.621Z,33.80
2017-06-19T20:11:04.909Z,34.40
2017-06-19T20:13:33.199Z,35.00
2017-06-19T20:16:01.490Z,35.80
2017-06-19T20:18:29.769Z,37.20
2017-06-19T20:20:58.069Z,37.50
2017-06-19T20:23:26.340Z,38.40
2017-06-19T20:25:55.388Z,39.20
2017-06-19T20:28:23.678Z,39.10
2017-06-19T20:30:52.728Z,38.70
2017-06-19T20:33:20.996Z,38.50
2017-06-19T20:35:49.308Z,38.60
2017-06-19T20:38:17.579Z,39.10
2017-06-19T20:40:46.300Z,39.30
2017-06-19T20:43:14.628Z,41.10
2017-06-19T20:45:42.901Z,40.50
2017-06-19T20:48:11.217Z,41.10
2017-06-19T20:50:40.136Z,41.10
2017-06-19T20:53:08.408Z,41.00
2017-06-19T20:55:37.472Z,42.40
2017-06-19T20:58:05.798Z,41.80
2017-06-19T21:00:34.068Z,41.60
2017-06-19T21:03:02.369Z,41.80
2017-06-19T21:05:30.688Z,41.80
2017-06-19T21:07:58.965Z,41.80
2017-06-19T21:10:27.244Z,42.90
2017-06-19T21:12:55.568Z,43.00
2017-06-19T21:15:23.840Z,43.40
2017-06-19T21:17:52.132Z,43.90
2017-06-19T21:20:20.449Z,44.00
2017-06-19T21:22:48.736Z,44.30
2017-06-19T21:25:17.024Z,44.30
2017-06-19T21:27:45.348Z,45.00
2017-06-19T21:30:13.617Z,45.40
2017-06-19T21:32:41.886Z,45.40
2017-06-19T21:35:10.300Z,45.30
2017-06-19T21:37:39.336Z,45.40
2017-06-19T21:40:07.608Z,46.00
2017-06-19T21:42:35.924Z,47.20
2017-06-19T21:45:04.189Z,47.30
2017-06-19T21:47:32.480Z,46.70
2017-06-19T21:50:00.828Z,47.00
2017-06-19T21:52:29.100Z,48.10
2017-06-19T21:54:57.376Z,47.60
2017-06-19T21:57:25.696Z,47.70
2017-06-19T21:59:53.960Z,48.50
2017-06-19T22:02:22.238Z,48.60
2017-06-19T22:04:50.541Z,48.30
2017-06-19T22:07:18.820Z,48.00
2017-06-19T22:09:47.851Z,48.40
2017-06-19T22:12:16.184Z,48.30
2017-06-19T22:14:44.448Z,48.90
2017-06-19T22:17:12.724Z,49.10
2017-06-19T22:19:41.032Z,49.00
2017-06-19T22:22:29.180Z,49.00
2017-06-19T22:24:58.249Z,49.50
2017-06-19T22:27:26.523Z,49.40
2017-06-19T22:29:54.815Z,50.00
2017-06-19T22:32:23.148Z,50.70
2017-06-19T22:34:51.448Z,50.60
2017-06-19T22:37:19.738Z,50.80
2017-06-19T22:39:48.044Z,50.90
2017-06-19T22:42:17.156Z,51.20
2017-06-19T22:44:45.423Z,51.10
2017-06-19T22:47:13.754Z,51.60
2017-06-19T22:49:42.020Z,51.40
2017-06-19T22:52:10.303Z,52.00
2017-06-19T22:54:38.624Z,51.80
2017-06-19T22:57:06.897Z,51.80
2017-06-19T22:59:35.172Z,52.40
2017-06-19T23:02:03.486Z,52.00
2017-06-19T23:04:31.760Z,52.30
2017-06-19T23:07:00.812Z,52.60
2017-06-19T23:09:29.168Z,52.40
2017-06-19T23:11:57.472Z,52.20
2017-06-19T23:14:25.795Z,52.80
2017-06-19T23:16:54.411Z,53.20
2017-06-19T23:19:22.692Z,53.00
2017-06-19T23:21:50.972Z,53.60
2017-06-19T23:24:19.275Z,53.40
2017-06-19T23:26:48.336Z,53.90
2017-06-19T23:29:17.460Z,53.60
2017-06-19T23:31:45.904Z,53.50
2017-06-19T23:34:14.944Z,53.80
2017-06-19T23:36:43.224Z,53.70
2017-06-19T23:39:11.548Z,53.70
2017-06-19T23:41:39.825Z,54.00
2017-06-19T23:44:08.099Z,54.60
2017-06-19T23:46:36.416Z,54.00
2017-06-19T23:49:04.692Z,54.10
2017-06-19T23:51:32.978Z,54.50
2017-06-19T23:54:01.490Z,54.20
2017-06-19T23:56:29.759Z,55.00
2017-06-19T23:58:58.050Z,55.30
